Time;durP1;ratioP1;P1;durP2;ratioP2;P2;SDS_P1;SDS_P2;PMS_P1;PMS_P2;Temp;Humidity;BMP_temperature;BMP_pressure;BME280_temperature;BME280_humidity;BME280_pressure;Samples;Min_cycle;Max_cycle;Signal;HPM_P1;HPM_P2
2022/12/11 00:00:07;;;;;;;26.40;11.75;;;-1.60;99.90;;;;;;5054482;28;20381;-80
2022/12/11 00:02:33;;;;;;;28.83;13.60;;;-1.60;99.90;;;;;;5054348;28;20506;-79
2022/12/11 00:04:59;;;;;;;23.58;10.23;;;-1.60;99.90;;;;;;5055620;28;20064;-79
2022/12/11 00:07:24;;;;;;;24.13;10.50;;;-1.60;99.90;;;;;;5055719;28;20016;-80
2022/12/11 00:09:50;;;;;;;16.77;8.75;;;-1.60;99.90;;;;;;5055498;28;20028;-78
2022/12/11 00:12:15;;;;;;;22.60;11.48;;;-1.60;99.90;;;;;;5055663;28;20028;-78
2022/12/11 00:14:41;;;;;;;30.25;14.00;;;-1.60;99.90;;;;;;5054848;28;20032;-80
2022/12/11 00:17:06;;;;;;;22.45;11.15;;;-1.50;99.90;;;;;;5054310;28;20124;-80
2022/12/11 00:19:32;;;;;;;21.42;11.50;;;-1.50;99.90;;;;;;5055432;28;20082;-79
2022/12/11 00:21:57;;;;;;;25.95;11.50;;;-1.50;99.90;;;;;;5053854;28;20037;-79
2022/12/11 00:24:23;;;;;;;21.30;11.43;;;-1.50;99.90;;;;;;5054288;28;20025;-79
2022/12/11 00:26:49;;;;;;;31.08;13.48;;;-1.50;99.90;;;;;;5053973;28;20029;-79
2022/12/11 00:29:14;;;;;;;32.65;14.23;;;-1.50;99.90;;;;;;5054020;28;20025;-78
2022/12/11 00:31:41;;;;;;;25.90;13.25;;;-1.50;99.90;;;;;;5053948;28;20021;-80
2022/12/11 00:34:07;;;;;;;22.67;10.98;;;-1.50;99.90;;;;;;5053946;28;20021;-78
2022/12/11 00:36:33;;;;;;;24.98;12.70;;;-1.50;99.90;;;;;;5055099;28;20127;-79
2022/12/11 00:39:00;;;;;;;22.83;12.57;;;-1.50;99.90;;;;;;5055233;28;20100;-79
2022/12/11 00:41:26;;;;;;;19.23;9.23;;;-1.50;99.90;;;;;;5054661;28;20033;-78
2022/12/11 00:43:52;;;;;;;20.92;12.10;;;-1.50;99.90;;;;;;5054713;28;20032;-79
2022/12/11 00:46:17;;;;;;;22.85;10.77;;;-1.50;99.90;;;;;;5053616;28;20083;-78
2022/12/11 00:48:43;;;;;;;21.83;11.75;;;-1.50;99.90;;;;;;5053581;28;20021;-79
2022/12/11 00:51:09;;;;;;;23.33;12.43;;;-1.40;99.90;;;;;;5054741;28;20021;-80
2022/12/11 00:53:36;;;;;;;23.73;12.02;;;-1.40;99.90;;;;;;5053485;28;20471;-79
2022/12/11 00:56:08;;;;;;;20.67;10.27;;;-1.40;99.90;;;;;;5054783;28;20028;-79
2022/12/11 00:58:34;;;;;;;21.55;10.98;;;-1.40;99.90;;;;;;5054766;28;20032;-78
2022/12/11 01:01:11;;;;;;;24.45;11.48;;;-1.40;99.90;;;;;;5053694;28;20024;-79
2022/12/11 01:03:37;;;;;;;21.92;11.25;;;-1.40;99.90;;;;;;5054748;28;20111;-79
2022/12/11 01:06:03;;;;;;;19.60;11.73;;;-1.40;99.90;;;;;;5053281;28;20041;-79
2022/12/11 01:08:29;;;;;;;21.70;11.00;;;-1.40;99.90;;;;;;5054543;28;20048;-80
2022/12/11 01:11:03;;;;;;;22.83;11.02;;;-1.40;99.90;;;;;;5054305;28;20470;-79
2022/12/11 01:13:29;;;;;;;20.27;11.38;;;-1.40;99.90;;;;;;5054411;28;20028;-79
2022/12/11 01:15:55;;;;;;;23.40;11.23;;;-1.50;99.90;;;;;;5052959;28;20028;-78
2022/12/11 01:18:20;;;;;;;21.85;11.48;;;-1.50;99.90;;;;;;5054417;28;20025;-79
2022/12/11 01:20:46;;;;;;;25.13;11.88;;;-1.40;99.90;;;;;;5054135;28;20163;-79
2022/12/11 01:23:12;;;;;;;29.15;12.82;;;-1.40;99.90;;;;;;5052897;28;20037;-79
2022/12/11 01:25:38;;;;;;;20.58;10.73;;;-1.50;99.90;;;;;;5052431;28;20025;-79
2022/12/11 01:28:05;;;;;;;23.05;11.80;;;-1.40;99.90;;;;;;5052502;28;20013;-79
2022/12/11 01:30:31;;;;;;;24.77;11.98;;;-1.40;99.90;;;;;;5052844;28;20474;-80
2022/12/11 01:32:56;;;;;;;21.35;11.10;;;-1.40;99.90;;;;;;5052769;28;20035;-79
2022/12/11 01:35:22;;;;;;;20.65;13.15;;;-1.40;99.90;;;;;;5052815;28;20025;-79
2022/12/11 01:37:48;;;;;;;25.75;11.68;;;-1.40;99.90;;;;;;5052610;28;20104;-80
2022/12/11 01:40:17;;;;;;;25.85;12.70;;;-1.40;99.90;;;;;;5053949;28;20021;-79
2022/12/11 01:42:43;;;;;;;27.75;13.20;;;-1.40;99.90;;;;;;5052234;28;20554;-80
2022/12/11 01:45:20;;;;;;;22.30;11.25;;;-1.40;99.90;;;;;;5053868;28;20021;-80
2022/12/11 01:47:47;;;;;;;27.60;12.85;;;-1.40;99.90;;;;;;5052456;28;20017;-81
2022/12/11 01:50:13;;;;;;;20.73;10.82;;;-1.40;99.90;;;;;;5052489;28;20410;-80
2022/12/11 01:52:41;;;;;;;22.58;10.80;;;-1.40;99.90;;;;;;5053495;28;20017;-79
2022/12/11 01:55:08;;;;;;;22.73;12.73;;;-1.50;99.90;;;;;;5053382;28;20025;-78
2022/12/11 01:57:36;;;;;;;21.73;11.23;;;-1.40;99.90;;;;;;5053714;28;20025;-79
2022/12/11 02:00:04;;;;;;;22.33;11.00;;;-1.40;99.90;;;;;;5052297;28;20485;-79
2022/12/11 02:02:31;;;;;;;20.35;10.27;;;-1.40;99.90;;;;;;5053488;28;20115;-79
2022/12/11 02:04:57;;;;;;;23.02;10.98;;;-1.50;99.90;;;;;;5052165;28;20072;-79
2022/12/11 02:07:23;;;;;;;21.98;12.05;;;-1.40;99.90;;;;;;5053366;28;20040;-79
2022/12/11 02:09:49;;;;;;;19.38;9.63;;;-1.40;99.90;;;;;;5052140;28;20386;-79
2022/12/11 02:12:26;;;;;;;24.83;10.80;;;-1.40;99.90;;;;;;5052159;28;20025;-79
2022/12/11 02:15:02;;;;;;;20.10;9.65;;;-1.40;99.90;;;;;;5053414;28;20021;-79
2022/12/11 02:17:51;;;;;;;16.83;8.98;;;-1.40;99.90;;;;;;5053080;28;20478;-80
2022/12/11 02:20:32;;;;;;;18.17;8.98;;;-1.40;99.90;;;;;;5051934;28;20017;-78
2022/12/11 02:23:07;;;;;;;17.17;10.00;;;-1.50;99.90;;;;;;5051843;28;20123;-78
2022/12/11 02:25:49;;;;;;;19.92;10.07;;;-1.40;99.90;;;;;;5051894;28;20143;-79
2022/12/11 02:28:23;;;;;;;20.88;11.00;;;-1.40;99.90;;;;;;5051919;28;20017;-78
2022/12/11 02:30:54;;;;;;;20.83;10.52;;;-1.40;99.90;;;;;;5051986;28;20021;-79
2022/12/11 02:33:33;;;;;;;21.98;10.15;;;-1.40;99.90;;;;;;5052089;28;20070;-79
2022/12/11 02:35:59;;;;;;;12.18;7.40;;;-1.50;99.90;;;;;;5053144;28;20021;-79
2022/12/11 02:38:32;;;;;;;21.08;10.85;;;-1.50;99.90;;;;;;5051556;28;20025;-78
2022/12/11 02:40:59;;;;;;;;;;;-1.50;99.90;;;;;;5053656;28;20463;-79
2022/12/11 02:43:26;;;;;;;18.60;9.65;;;-1.50;99.90;;;;;;5051446;28;19917;-78
2022/12/11 02:45:53;;;;;;;23.15;11.50;;;-1.50;99.90;;;;;;5051630;28;20025;-79
2022/12/11 02:48:21;;;;;;;22.10;10.88;;;-1.50;99.90;;;;;;5051616;28;20027;-79
2022/12/11 02:50:53;;;;;;;20.45;11.45;;;-1.50;99.90;;;;;;5052809;28;20033;-80
2022/12/11 02:53:24;;;;;;;20.77;11.18;;;-1.50;99.90;;;;;;5051574;28;20021;-80
2022/12/11 02:55:57;;;;;;;19.38;10.57;;;-1.50;99.90;;;;;;5051675;28;20021;-78
2022/12/11 02:58:28;;;;;;;27.35;11.75;;;-1.60;99.90;;;;;;5051647;28;20437;-80
2022/12/11 03:00:54;;;;;;;24.55;11.77;;;-1.60;99.90;;;;;;5052804;28;20032;-79
2022/12/11 03:03:21;;;;;;;23.73;11.75;;;-1.60;99.90;;;;;;5051425;28;20037;-80
2022/12/11 03:05:46;;;;;;;22.25;10.30;;;-1.50;99.90;;;;;;5051434;28;20036;-80
2022/12/11 03:08:16;;;;;;;22.63;11.40;;;-1.50;99.90;;;;;;5051430;28;20017;-79
2022/12/11 03:10:42;;;;;;;27.35;14.15;;;-1.60;99.90;;;;;;5052661;28;20027;-79
2022/12/11 03:13:07;;;;;;;22.85;10.93;;;-1.60;99.90;;;;;;5052668;28;20096;-80
2022/12/11 03:15:37;;;;;;;21.05;11.52;;;-1.60;99.90;;;;;;5052708;28;20017;-80
2022/12/11 03:18:16;;;;;;;25.13;11.45;;;-1.60;99.90;;;;;;5051294;28;20500;-79
2022/12/11 03:20:46;;;;;;;21.20;10.27;;;-1.60;99.90;;;;;;5051326;28;20029;-80
2022/12/11 03:23:37;;;;;;;27.08;12.48;;;-1.60;99.90;;;;;;5051191;28;20491;-79
2022/12/11 03:26:08;;;;;;;24.63;11.90;;;-1.60;99.90;;;;;;5047725;28;20025;-80
2022/12/11 03:29:00;;;;;;;22.33;12.25;;;-1.60;99.90;;;;;;5052564;28;20044;-79
2022/12/11 03:31:32;;;;;;;23.85;11.48;;;-1.60;99.90;;;;;;5051196;28;20075;-79
2022/12/11 03:34:02;;;;;;;25.23;12.75;;;-1.60;99.90;;;;;;5051273;28;20428;-79
2022/12/11 03:36:34;;;;;;;26.55;12.98;;;-1.60;99.90;;;;;;5052634;28;20498;-80
2022/12/11 03:39:06;;;;;;;24.08;12.95;;;-1.60;99.90;;;;;;5051261;28;20025;-80
2022/12/11 03:41:34;;;;;;;26.33;12.57;;;-1.60;99.90;;;;;;5050955;28;20067;-80
2022/12/11 03:44:00;;;;;;;31.58;13.68;;;-1.60;99.90;;;;;;5052503;28;20025;-79
2022/12/11 03:46:32;;;;;;;29.25;12.50;;;-1.60;99.90;;;;;;5051254;28;20055;-80
2022/12/11 03:49:04;;;;;;;30.73;13.13;;;-1.60;99.90;;;;;;5052435;28;20032;-80
2022/12/11 03:51:33;;;;;;;24.70;12.50;;;-1.60;99.90;;;;;;5066355;28;20052;-80
2022/12/11 03:53:59;;;;;;;28.90;14.35;;;-1.70;99.90;;;;;;5074571;28;20024;-80
2022/12/11 03:56:27;;;;;;;25.02;11.40;;;-1.70;99.90;;;;;;5074572;28;20031;-79
2022/12/11 03:58:53;;;;;;;26.90;12.13;;;-1.70;99.90;;;;;;5075711;28;20070;-79
2022/12/11 04:01:18;;;;;;;21.65;11.75;;;-1.70;99.90;;;;;;5075859;28;20029;-80
2022/12/11 04:03:44;;;;;;;23.48;11.82;;;-1.70;99.90;;;;;;5074359;28;20060;-79
2022/12/11 04:06:09;;;;;;;25.15;14.50;;;-1.70;99.90;;;;;;5075788;28;20367;-80
2022/12/11 04:08:35;;;;;;;24.48;12.85;;;-1.70;99.90;;;;;;5074456;28;20418;-79
2022/12/11 04:15:00;;;;;;;29.92;13.20;;;-1.70;99.90;;;;;;5075777;28;20413;-80
2022/12/11 04:16:32;;;;;;;24.83;12.68;;;-1.70;99.90;;;;;;5075582;28;20103;-80
2022/12/11 04:24:25;;;;;;;23.60;12.15;;;-1.70;99.90;;;;;;5055520;28;20035;-80
2022/12/11 04:26:51;;;;;;;20.95;11.45;;;-1.70;99.90;;;;;;5054049;28;20116;-79
2022/12/11 04:29:16;;;;;;;20.63;11.65;;;-1.70;99.90;;;;;;5053936;28;20486;-79
2022/12/11 04:31:42;;;;;;;20.05;11.45;;;-1.70;99.90;;;;;;5054078;28;20017;-79
2022/12/11 04:34:07;;;;;;;28.73;11.73;;;-1.70;99.90;;;;;;5053867;28;20387;-80
2022/12/11 04:36:33;;;;;;;22.77;12.07;;;-1.70;99.90;;;;;;5053869;28;20021;-79
2022/12/11 04:38:59;;;;;;;22.13;11.07;;;-1.80;99.90;;;;;;5053855;28;20029;-78
2022/12/11 04:41:24;;;;;;;23.92;12.30;;;-1.80;99.90;;;;;;5054962;28;20543;-78
2022/12/11 04:43:50;;;;;;;19.80;10.63;;;-1.80;99.90;;;;;;5053613;28;20040;-80
2022/12/11 04:46:22;;;;;;;27.05;11.90;;;-1.80;99.90;;;;;;5053783;28;20080;-78
2022/12/11 04:48:48;;;;;;;25.40;12.20;;;-1.80;99.90;;;;;;5053659;28;20025;-79
2022/12/11 04:51:14;;;;;;;25.85;12.45;;;-1.80;99.90;;;;;;5061932;28;20027;-79
2022/12/11 04:53:40;;;;;;;19.98;10.77;;;-1.80;99.90;;;;;;5073490;28;20111;-79
2022/12/11 04:56:11;;;;;;;25.27;10.70;;;-1.80;99.90;;;;;;5074940;28;20052;-79
2022/12/11 04:58:37;;;;;;;23.17;12.10;;;-1.80;99.90;;;;;;5073513;28;20025;-78
2022/12/11 05:01:09;;;;;;;24.13;11.52;;;-1.80;99.90;;;;;;5074598;28;20113;-79
2022/12/11 05:03:35;;;;;;;;;;;-1.80;99.90;;;;;;5075059;28;20056;-79
2022/12/11 05:06:01;;;;;;;27.30;12.18;;;-1.80;99.90;;;;;;5049487;28;20006;-78
2022/12/11 05:08:26;;;;;;;21.00;13.52;;;-1.80;99.90;;;;;;5068637;28;20393;-79
2022/12/11 05:11:00;;;;;;;24.30;12.55;;;-1.80;99.90;;;;;;5071395;28;20074;-80
2022/12/11 05:13:27;;;;;;;25.05;13.60;;;-1.80;99.90;;;;;;5068301;28;20561;-80
2022/12/11 05:15:53;;;;;;;24.13;12.02;;;-1.80;99.90;;;;;;5072472;28;20083;-78
2022/12/11 05:18:18;;;;;;;31.55;13.82;;;-1.90;99.90;;;;;;5072499;28;20020;-79
2022/12/11 05:20:53;;;;;;;23.40;12.52;;;-1.90;99.90;;;;;;5068979;28;20028;-79
2022/12/11 05:23:19;;;;;;;22.20;11.02;;;-1.90;99.90;;;;;;5069650;28;20120;-79
2022/12/11 05:25:54;;;;;;;23.10;12.85;;;-1.90;99.90;;;;;;5073964;28;20103;-80
2022/12/11 05:28:21;;;;;;;21.42;12.38;;;-1.90;99.90;;;;;;5072812;28;20021;-80
2022/12/11 05:30:47;;;;;;;25.83;11.65;;;-1.90;99.90;;;;;;5072714;28;20021;-78
2022/12/11 05:33:12;;;;;;;25.85;11.38;;;-1.90;99.90;;;;;;5072079;28;20013;-78
2022/12/11 05:35:38;;;;;;;23.40;11.95;;;-1.90;99.90;;;;;;5073633;28;20070;-78
2022/12/11 05:38:04;;;;;;;19.83;10.27;;;-1.90;99.90;;;;;;5072475;28;20402;-78
2022/12/11 05:40:29;;;;;;;19.75;8.88;;;-1.90;99.90;;;;;;5064183;28;20036;-79
2022/12/11 05:42:55;;;;;;;22.08;10.35;;;-1.90;99.90;;;;;;5072058;28;20563;-78
2022/12/11 05:45:20;;;;;;;17.75;7.97;;;-1.90;99.90;;;;;;5072369;28;20029;-79
2022/12/11 05:47:46;;;;;;;23.77;10.02;;;-1.90;99.90;;;;;;5073090;28;20028;-78
2022/12/11 05:50:12;;;;;;;19.88;10.80;;;-1.90;99.90;;;;;;5073488;28;20020;-79
2022/12/11 05:52:37;;;;;;;22.17;11.35;;;-1.90;99.90;;;;;;5068769;28;20017;-79
2022/12/11 05:55:03;;;;;;;23.13;11.13;;;-1.90;99.90;;;;;;5073521;28;20032;-78
2022/12/11 05:57:28;;;;;;;21.10;12.30;;;-1.90;99.90;;;;;;5073480;28;20028;-78
2022/12/11 05:59:54;;;;;;;22.63;11.80;;;-1.90;99.90;;;;;;5072170;28;20017;-78
2022/12/11 06:02:20;;;;;;;24.08;10.95;;;-2.00;99.90;;;;;;5072717;28;20032;-79
2022/12/11 06:04:45;;;;;;;16.60;9.77;;;-2.00;99.90;;;;;;5070751;28;20099;-78
2022/12/11 06:07:11;;;;;;;22.80;10.43;;;-1.90;99.90;;;;;;5044220;28;20032;-78
2022/12/11 06:09:37;;;;;;;26.52;13.13;;;-1.90;99.90;;;;;;5071947;28;20470;-78
2022/12/11 06:12:03;;;;;;;25.48;12.25;;;-1.90;99.90;;;;;;5060902;28;20371;-78
2022/12/11 06:14:28;;;;;;;27.25;11.80;;;-2.00;99.90;;;;;;5071730;28;20056;-80
2022/12/11 06:16:54;;;;;;;22.40;10.45;;;-2.00;99.90;;;;;;5071309;28;20025;-79
2022/12/11 06:19:19;;;;;;;26.55;11.15;;;-2.10;99.90;;;;;;5073178;28;20024;-78
2022/12/11 06:21:47;;;;;;;22.77;10.98;;;-2.10;99.90;;;;;;5072983;28;20020;-79
2022/12/11 06:24:13;;;;;;;22.83;11.30;;;-2.10;99.90;;;;;;5071830;28;20020;-78
2022/12/11 06:26:39;;;;;;;24.63;12.45;;;-2.20;99.90;;;;;;5072877;28;20074;-81
2022/12/11 06:29:05;;;;;;;22.58;11.18;;;-2.20;99.90;;;;;;5073133;28;20021;-80
2022/12/11 06:31:30;;;;;;;27.20;10.75;;;-2.20;99.90;;;;;;5070815;28;20044;-78
2022/12/11 06:33:56;;;;;;;24.55;11.38;;;-2.20;99.90;;;;;;5073070;28;20024;-78
2022/12/11 06:36:23;;;;;;;22.85;11.00;;;-2.20;99.90;;;;;;5071663;28;20031;-79
2022/12/11 06:38:49;;;;;;;25.60;11.90;;;-2.20;99.90;;;;;;5071489;28;20104;-79
2022/12/11 06:41:15;;;;;;;22.42;12.90;;;-2.20;99.90;;;;;;5069203;28;20063;-80
2022/12/11 06:43:47;;;;;;;25.50;13.10;;;-2.20;99.90;;;;;;5072989;28;20033;-78
2022/12/11 06:46:15;;;;;;;22.15;10.43;;;-2.20;99.90;;;;;;5057429;28;20024;-77
2022/12/11 06:48:42;;;;;;;26.85;14.95;;;-2.20;99.90;;;;;;5072944;28;20050;-80
2022/12/11 06:51:13;;;;;;;23.75;13.18;;;-2.20;99.90;;;;;;5067524;28;20039;-80
2022/12/11 06:53:39;;;;;;;30.85;17.50;;;-2.30;99.90;;;;;;5071715;28;20078;-78
2022/12/11 06:56:10;;;;;;;27.88;13.57;;;-2.20;99.90;;;;;;5072738;28;20446;-80
2022/12/11 06:58:36;;;;;;;29.75;12.95;;;-2.20;99.90;;;;;;5071595;28;20032;-80
2022/12/11 07:01:03;;;;;;;20.42;10.98;;;-2.20;99.90;;;;;;5072066;28;20032;-78
2022/12/11 07:03:29;;;;;;;21.58;11.68;;;-2.20;99.90;;;;;;5064462;28;20044;-80
2022/12/11 07:06:00;;;;;;;27.10;12.60;;;-2.30;99.90;;;;;;5044497;28;20092;-79
2022/12/11 07:08:27;;;;;;;19.98;10.90;;;-2.20;99.90;;;;;;5066294;28;20466;-79
2022/12/11 07:10:53;;;;;;;22.20;11.18;;;-2.20;99.90;;;;;;5071250;28;20493;-78
2022/12/11 07:13:18;;;;;;;26.67;12.45;;;-2.20;99.90;;;;;;5072544;28;20021;-78
2022/12/11 07:15:44;;;;;;;25.80;11.57;;;-2.30;99.90;;;;;;5071864;28;20047;-78
2022/12/11 07:18:10;;;;;;;21.55;12.45;;;-2.30;99.90;;;;;;5072625;28;20477;-80
2022/12/11 07:20:35;;;;;;;18.85;10.15;;;-2.30;99.90;;;;;;5070943;28;20058;-80
2022/12/11 07:23:01;;;;;;;20.13;11.93;;;-2.30;99.90;;;;;;5072326;28;20048;-80
2022/12/11 07:25:26;;;;;;;22.60;12.27;;;-2.30;99.90;;;;;;5073609;28;20036;-80
2022/12/11 07:27:52;;;;;;;27.45;13.70;;;-2.30;99.90;;;;;;5074907;28;20062;-80
2022/12/11 07:30:18;;;;;;;27.35;14.80;;;-2.30;99.90;;;;;;5075022;28;20020;-78
2022/12/11 07:32:43;;;;;;;18.25;11.60;;;-2.20;99.90;;;;;;5075569;28;20029;-79
2022/12/11 07:35:09;;;;;;;30.15;14.45;;;-2.30;99.90;;;;;;5050714;28;20389;-79
2022/12/11 07:37:35;;;;;;;22.27;13.10;;;-2.20;99.90;;;;;;5074723;28;20039;-80
2022/12/11 07:40:00;;;;;;;19.13;12.13;;;-2.20;99.90;;;;;;5071034;28;20461;-79
2022/12/11 07:42:27;;;;;;;21.15;11.07;;;-2.20;99.90;;;;;;5075685;28;20118;-78
2022/12/11 07:44:53;;;;;;;24.33;12.20;;;-2.30;99.90;;;;;;5074652;28;20020;-78
2022/12/11 07:47:18;;;;;;;21.95;11.02;;;-2.30;99.90;;;;;;5075430;28;20390;-80
2022/12/11 07:49:44;;;;;;;17.70;10.52;;;-2.20;99.90;;;;;;5074575;28;20024;-78
2022/12/11 07:52:10;;;;;;;21.25;11.35;;;-2.20;99.90;;;;;;5070504;28;20016;-81
2022/12/11 07:54:35;;;;;;;24.77;11.45;;;-2.30;99.90;;;;;;5067140;28;20544;-78
2022/12/11 07:57:01;;;;;;;19.83;11.02;;;-2.20;99.90;;;;;;5068720;28;20154;-80
2022/12/11 07:59:27;;;;;;;20.20;10.23;;;-2.20;99.90;;;;;;5074896;28;20056;-80
2022/12/11 08:01:52;;;;;;;19.73;11.23;;;-2.20;99.90;;;;;;5070820;28;20371;-79
2022/12/11 08:04:18;;;;;;;23.35;13.00;;;-2.10;99.90;;;;;;5075506;28;20028;-80
2022/12/11 08:06:43;;;;;;;22.35;12.50;;;-2.10;99.90;;;;;;5060839;28;20029;-78
2022/12/11 08:09:13;;;;;;;24.48;11.75;;;-2.20;99.90;;;;;;5075343;28;20044;-78
2022/12/11 08:11:38;;;;;;;31.38;15.20;;;-2.20;99.90;;;;;;5073998;28;20020;-79
2022/12/11 08:14:05;;;;;;;42.33;17.80;;;-2.10;99.90;;;;;;5074202;28;20420;-78
2022/12/11 08:16:31;;;;;;;22.10;13.18;;;-2.10;99.90;;;;;;5073583;28;20470;-78
2022/12/11 08:18:57;;;;;;;24.70;12.45;;;-2.10;99.90;;;;;;5048804;28;20027;-80
2022/12/11 08:21:25;;;;;;;23.58;11.90;;;-2.10;99.90;;;;;;5073950;28;20024;-79
2022/12/11 08:23:52;;;;;;;23.00;12.40;;;-2.10;99.90;;;;;;5073566;28;20032;-78
2022/12/11 08:26:24;;;;;;;21.25;12.23;;;-2.10;99.90;;;;;;5075216;28;20024;-79
2022/12/11 08:28:50;;;;;;;47.03;17.77;;;-2.00;99.90;;;;;;5074962;28;20071;-78
2022/12/11 08:31:17;;;;;;;27.40;15.52;;;-2.00;99.90;;;;;;5064557;28;20479;-78
2022/12/11 08:33:43;;;;;;;40.65;21.80;;;-2.00;99.90;;;;;;5075072;28;20070;-79
2022/12/11 08:36:13;;;;;;;39.55;16.27;;;-1.90;99.90;;;;;;5074753;28;20025;-79
2022/12/11 08:38:39;;;;;;;28.70;14.13;;;-2.00;99.90;;;;;;5073713;28;20020;-79
2022/12/11 08:41:20;;;;;;;23.15;12.77;;;-2.00;99.90;;;;;;5070315;28;20020;-79
2022/12/11 08:43:46;;;;;;;33.60;14.90;;;-2.00;99.90;;;;;;5074800;28;20036;-79
2022/12/11 08:46:12;;;;;;;43.45;19.70;;;-1.90;99.90;;;;;;5074424;28;20025;-78
2022/12/11 08:48:40;;;;;;;24.65;13.45;;;-1.90;99.90;;;;;;5052865;28;20025;-78
2022/12/11 08:51:09;;;;;;;26.02;13.55;;;-2.00;99.90;;;;;;5061371;28;20050;-79
2022/12/11 08:53:35;;;;;;;289.95;94.53;;;-2.00;99.90;;;;;;5071094;28;20028;-78
2022/12/11 08:56:07;;;;;;;58.63;24.45;;;-2.00;99.90;;;;;;5071763;28;20032;-78
2022/12/11 08:58:33;;;;;;;29.67;15.57;;;-1.90;99.90;;;;;;5074594;28;20017;-78
2022/12/11 09:00:58;;;;;;;31.48;14.80;;;-1.90;99.90;;;;;;5073735;28;20027;-78
2022/12/11 09:03:24;;;;;;;26.80;13.77;;;-1.90;99.90;;;;;;5064500;28;20037;-78
2022/12/11 09:05:50;;;;;;;25.80;13.98;;;-1.90;99.90;;;;;;5065516;28;20017;-78
2022/12/11 09:08:16;;;;;;;26.40;13.98;;;-1.90;99.90;;;;;;5065932;28;20500;-78
2022/12/11 09:10:42;;;;;;;28.15;13.30;;;-1.90;99.90;;;;;;5047527;28;20057;-78
2022/12/11 09:13:07;;;;;;;31.38;14.65;;;-1.90;99.90;;;;;;5043883;28;20017;-78
2022/12/11 09:15:33;;;;;;;27.42;12.25;;;-2.00;99.90;;;;;;5047435;28;20047;-78
2022/12/11 09:17:58;;;;;;;21.92;10.93;;;-2.10;99.90;;;;;;5044260;28;20096;-79
2022/12/11 09:20:24;;;;;;;26.92;14.43;;;-2.10;99.90;;;;;;5050578;28;20024;-78
2022/12/11 09:22:50;;;;;;;28.15;13.88;;;-2.10;99.90;;;;;;5051657;28;20083;-78
2022/12/11 09:25:15;;;;;;;39.33;16.65;;;-2.20;99.90;;;;;;5043952;28;20059;-78
2022/12/11 09:27:41;;;;;;;24.80;13.75;;;-2.10;99.90;;;;;;5044615;28;20052;-78
2022/12/11 09:30:07;;;;;;;23.35;14.45;;;-2.10;99.90;;;;;;5046755;28;20021;-79
2022/12/11 09:32:33;;;;;;;34.17;15.20;;;-2.20;99.90;;;;;;5045678;28;20021;-78
2022/12/11 09:34:59;;;;;;;27.17;14.68;;;-2.20;99.90;;;;;;5044897;28;20040;-78
2022/12/11 09:37:25;;;;;;;29.00;14.68;;;-2.30;99.90;;;;;;5044787;28;20537;-78
2022/12/11 09:39:51;;;;;;;28.23;15.85;;;-2.20;99.90;;;;;;5044028;28;20013;-78
2022/12/11 09:42:26;;;;;;;28.98;14.27;;;-2.20;99.90;;;;;;5044145;28;20171;-78
2022/12/11 09:44:56;;;;;;;35.55;15.07;;;-2.20;99.90;;;;;;5039712;28;20044;-78
2022/12/11 09:47:37;;;;;;;38.35;17.88;;;-2.30;99.90;;;;;;5043230;28;20051;-78
2022/12/11 09:50:08;;;;;;;32.55;19.13;;;-2.20;99.90;;;;;;5044091;28;20096;-79
2022/12/11 09:52:54;;;;;;;35.72;18.02;;;-2.30;99.90;;;;;;5072020;28;20120;-79
2022/12/11 09:55:23;;;;;;;32.65;17.80;;;-2.20;99.90;;;;;;5071847;28;20116;-79
2022/12/11 09:58:17;;;;;;;35.58;17.33;;;-2.30;99.90;;;;;;5072131;28;20082;-79
2022/12/11 10:00:48;;;;;;;63.25;26.42;;;-2.30;99.90;;;;;;5071279;28;20111;-78
2022/12/11 10:03:44;;;;;;;38.97;20.88;;;-2.20;99.90;;;;;;5069670;28;20056;-78
2022/12/11 10:06:24;;;;;;;37.85;19.50;;;-2.20;99.90;;;;;;5051996;28;20021;-78
2022/12/11 10:09:23;;;;;;;35.28;18.77;;;-2.30;99.90;;;;;;5069653;28;20052;-79
2022/12/11 10:12:17;;;;;;;30.00;17.75;;;-2.20;99.90;;;;;;5054798;28;20352;-79
2022/12/11 10:14:49;;;;;;;40.00;18.70;;;-2.20;99.90;;;;;;5040841;28;20037;-79
2022/12/11 10:17:20;;;;;;;56.78;24.85;;;-2.20;99.90;;;;;;5041116;28;20111;-79
2022/12/11 10:19:46;;;;;;;37.95;18.30;;;-2.20;99.90;;;;;;5045479;28;20036;-79
2022/12/11 10:22:22;;;;;;;40.47;21.00;;;-2.20;99.90;;;;;;5047849;28;20043;-79
2022/12/11 10:24:53;;;;;;;34.85;19.75;;;-2.20;99.90;;;;;;5042676;28;20021;-78
2022/12/11 10:27:26;;;;;;;44.28;21.25;;;-2.10;99.90;;;;;;5042789;28;20501;-79
2022/12/11 10:30:16;;;;;;;42.55;19.90;;;-2.00;99.90;;;;;;5048092;28;20115;-79
2022/12/11 10:32:49;;;;;;;36.83;16.77;;;-2.00;99.90;;;;;;5042118;28;20479;-79
2022/12/11 10:35:35;;;;;;;30.95;15.50;;;-2.00;99.90;;;;;;5042447;28;20062;-79
2022/12/11 10:38:18;;;;;;;53.60;24.25;;;-2.00;99.90;;;;;;5047414;28;20070;-79
2022/12/11 10:40:49;;;;;;;25.48;14.10;;;-2.10;99.90;;;;;;5043335;28;20085;-79
2022/12/11 10:43:15;;;;;;;26.48;13.63;;;-2.20;99.90;;;;;;5043994;28;20045;-79
2022/12/11 10:45:51;;;;;;;27.83;14.45;;;-2.30;99.90;;;;;;5042842;28;20028;-79
2022/12/11 10:48:16;;;;;;;29.15;16.27;;;-2.20;99.90;;;;;;5045421;28;20029;-78
2022/12/11 10:50:54;;;;;;;28.80;14.77;;;-2.20;99.90;;;;;;5045024;28;20025;-78
2022/12/11 10:53:20;;;;;;;29.95;14.05;;;-2.10;99.90;;;;;;5041261;28;20025;-78
2022/12/11 10:55:47;;;;;;;26.33;12.90;;;-2.20;99.90;;;;;;5047071;28;20016;-78
2022/12/11 10:58:24;;;;;;;24.35;13.68;;;-2.10;99.90;;;;;;5044438;28;20033;-79
2022/12/11 11:01:07;;;;;;;25.45;12.65;;;-2.10;99.90;;;;;;5053193;28;20017;-78
2022/12/11 11:03:34;;;;;;;30.67;16.08;;;-2.20;99.90;;;;;;5048715;28;20505;-78
2022/12/11 11:06:06;;;;;;;26.33;11.60;;;-2.30;99.90;;;;;;5043788;28;20017;-78
2022/12/11 11:08:44;;;;;;;17.52;10.18;;;-2.30;99.90;;;;;;5047576;28;20028;-78
2022/12/11 11:11:37;;;;;;;17.90;9.82;;;-2.40;99.90;;;;;;5046381;28;20497;-78
2022/12/11 11:14:15;;;;;;;22.20;12.15;;;-2.40;99.90;;;;;;5049703;28;20037;-78
2022/12/11 11:16:44;;;;;;;29.42;14.90;;;-2.30;99.90;;;;;;5051837;28;20383;-79
2022/12/11 11:19:28;;;;;;;24.17;11.32;;;-2.20;99.90;;;;;;5044371;28;20060;-78
2022/12/11 11:22:00;;;;;;;29.88;14.38;;;-2.30;99.90;;;;;;5050253;28;20036;-78
2022/12/11 11:24:55;;;;;;;24.67;12.98;;;-2.30;99.90;;;;;;5075006;28;20074;-78
2022/12/11 11:27:34;;;;;;;32.53;15.55;;;-2.30;99.90;;;;;;5054430;28;20021;-78
2022/12/11 11:30:04;;;;;;;71.40;25.95;;;-2.30;99.90;;;;;;5074252;28;20394;-78
2022/12/11 11:32:37;;;;;;;31.00;16.38;;;-2.20;99.90;;;;;;5042901;28;20025;-77
2022/12/11 11:35:10;;;;;;;26.10;13.55;;;-2.20;99.90;;;;;;5045493;28;20540;-77
2022/12/11 11:37:36;;;;;;;27.40;13.80;;;-2.30;99.90;;;;;;5051014;28;20017;-78
2022/12/11 11:40:11;;;;;;;28.92;14.18;;;-2.30;99.90;;;;;;5049127;28;20482;-78
2022/12/11 11:43:11;;;;;;;26.00;12.65;;;-2.40;99.90;;;;;;5050771;28;20103;-78
2022/12/11 11:45:44;;;;;;;33.05;14.02;;;-2.40;99.90;;;;;;5050872;28;20012;-78
2022/12/11 11:48:15;;;;;;;28.73;14.32;;;-2.30;99.90;;;;;;5046190;28;20037;-79
2022/12/11 11:50:45;;;;;;;29.90;14.52;;;-2.20;99.90;;;;;;5049236;28;20479;-78
2022/12/11 11:53:29;;;;;;;28.35;14.93;;;-2.20;99.90;;;;;;5039481;28;20088;-79
2022/12/11 11:56:02;;;;;;;38.42;16.67;;;-2.30;99.90;;;;;;5050684;28;20017;-78
2022/12/11 11:59:04;;;;;;;28.85;15.60;;;-2.20;99.90;;;;;;5054357;28;20495;-78
2022/12/11 12:01:30;;;;;;;28.17;15.32;;;-2.20;99.90;;;;;;5044081;28;20017;-78
2022/12/11 12:03:57;;;;;;;24.23;14.07;;;-2.20;99.90;;;;;;5070061;28;20032;-78
2022/12/11 12:06:46;;;;;;;29.95;15.40;;;-2.20;99.90;;;;;;5055801;28;20102;-78
2022/12/11 12:09:30;;;;;;;26.27;13.20;;;-2.00;99.90;;;;;;5045540;28;20182;-78
2022/12/11 12:12:34;;;;;;;26.80;13.02;;;-2.30;99.90;;;;;;5067721;28;20112;-78
2022/12/11 12:15:17;;;;;;;;;;;-2.30;99.90;;;;;;5073972;28;20039;-78
2022/12/11 12:18:28;;;;;;;23.92;13.05;;;-2.30;99.90;;;;;;5075280;28;19951;-78
2022/12/11 12:21:08;;;;;;;30.08;14.60;;;-2.30;99.90;;;;;;5066919;28;20037;-79
2022/12/11 12:23:49;;;;;;;38.72;17.83;;;-2.30;99.90;;;;;;5060466;28;20032;-79
2022/12/11 12:26:57;;;;;;;34.35;16.23;;;-2.30;99.90;;;;;;5056534;28;20490;-79
2022/12/11 12:29:46;;;;;;;52.45;24.02;;;-2.40;99.90;;;;;;5057819;28;20044;-79
2022/12/11 12:32:29;;;;;;;31.90;15.88;;;-2.40;99.90;;;;;;5056529;28;20048;-79
2022/12/11 12:35:04;;;;;;;32.92;18.15;;;-2.40;99.90;;;;;;5053009;28;20036;-79
2022/12/11 12:37:49;;;;;;;51.33;23.15;;;-2.50;99.90;;;;;;5056661;28;20070;-79
2022/12/11 12:40:30;;;;;;;74.38;32.42;;;-2.50;99.90;;;;;;5053340;28;20490;-79
2022/12/11 12:43:05;;;;;;;73.57;28.95;;;-2.40;99.90;;;;;;5053938;28;20045;-79
2022/12/11 12:45:52;;;;;;;47.85;21.02;;;-2.40;99.90;;;;;;5047743;28;20389;-78
2022/12/11 12:48:20;;;;;;;44.22;19.75;;;-2.40;99.90;;;;;;5049244;28;20024;-79
2022/12/11 12:50:48;;;;;;;54.88;22.45;;;-2.50;99.90;;;;;;5055096;28;20098;-79